sensor_id;sensor_type;location;lat;lon;timestamp;P1;durP1;ratioP1;P2;durP2;ratioP2
75647;SDS011;64238;51.466;7.260;2022-12-18T00:01:19;16.92;;;10.73;;
75647;SDS011;64238;51.466;7.260;2022-12-18T00:03:46;16.98;;;10.90;;
75647;SDS011;64238;51.466;7.260;2022-12-18T00:06:12;15.00;;;10.18;;
75647;SDS011;64238;51.466;7.260;2022-12-18T00:08:38;15.77;;;10.55;;
75647;SDS011;64238;51.466;7.260;2022-12-18T00:11:05;15.73;;;11.10;;
75647;SDS011;64238;51.466;7.260;2022-12-18T00:13:32;16.65;;;10.90;;
75647;SDS011;64238;51.466;7.260;2022-12-18T00:16:03;15.95;;;11.13;;
75647;SDS011;64238;51.466;7.260;2022-12-18T00:18:34;17.02;;;11.48;;
75647;SDS011;64238;51.466;7.260;2022-12-18T00:21:00;15.30;;;10.55;;
75647;SDS011;64238;51.466;7.260;2022-12-18T00:23:28;17.15;;;11.13;;
75647;SDS011;64238;51.466;7.260;2022-12-18T00:25:54;15.40;;;11.25;;
75647;SDS011;64238;51.466;7.260;2022-12-18T00:28:23;15.95;;;10.75;;
75647;SDS011;64238;51.466;7.260;2022-12-18T00:30:48;16.55;;;10.75;;
75647;SDS011;64238;51.466;7.260;2022-12-18T00:33:16;16.02;;;10.43;;
75647;SDS011;64238;51.466;7.260;2022-12-18T00:35:42;16.33;;;10.93;;
75647;SDS011;64238;51.466;7.260;2022-12-18T00:38:08;15.70;;;11.10;;
75647;SDS011;64238;51.466;7.260;2022-12-18T00:40:33;16.50;;;10.85;;
75647;SDS011;64238;51.466;7.260;2022-12-18T00:42:59;16.65;;;11.02;;
75647;SDS011;64238;51.466;7.260;2022-12-18T00:45:28;19.25;;;12.05;;
75647;SDS011;64238;51.466;7.260;2022-12-18T00:47:55;18.02;;;11.73;;
75647;SDS011;64238;51.466;7.260;2022-12-18T00:50:22;16.10;;;11.27;;
75647;SDS011;64238;51.466;7.260;2022-12-18T00:52:49;16.92;;;11.57;;
75647;SDS011;64238;51.466;7.260;2022-12-18T00:55:15;18.08;;;11.88;;
75647;SDS011;64238;51.466;7.260;2022-12-18T00:57:41;17.73;;;11.50;;
75647;SDS011;64238;51.466;7.260;2022-12-18T01:00:11;17.45;;;11.65;;
75647;SDS011;64238;51.466;7.260;2022-12-18T01:02:38;17.35;;;11.40;;
75647;SDS011;64238;51.466;7.260;2022-12-18T01:05:03;17.45;;;12.50;;
75647;SDS011;64238;51.466;7.260;2022-12-18T01:07:29;16.67;;;11.23;;
75647;SDS011;64238;51.466;7.260;2022-12-18T01:09:55;17.98;;;11.88;;
75647;SDS011;64238;51.466;7.260;2022-12-18T01:12:20;17.70;;;10.88;;
75647;SDS011;64238;51.466;7.260;2022-12-18T01:14:46;17.60;;;11.35;;
75647;SDS011;64238;51.466;7.260;2022-12-18T01:17:11;17.80;;;11.18;;
75647;SDS011;64238;51.466;7.260;2022-12-18T01:19:37;18.00;;;11.40;;
75647;SDS011;64238;51.466;7.260;2022-12-18T01:22:02;17.45;;;11.57;;
75647;SDS011;64238;51.466;7.260;2022-12-18T01:24:28;17.25;;;11.93;;
75647;SDS011;64238;51.466;7.260;2022-12-18T01:26:53;16.33;;;10.95;;
75647;SDS011;64238;51.466;7.260;2022-12-18T01:29:19;16.13;;;11.48;;
75647;SDS011;64238;51.466;7.260;2022-12-18T01:31:44;18.50;;;11.90;;
75647;SDS011;64238;51.466;7.260;2022-12-18T01:34:10;16.52;;;11.35;;
75647;SDS011;64238;51.466;7.260;2022-12-18T01:36:37;18.02;;;11.07;;
75647;SDS011;64238;51.466;7.260;2022-12-18T01:39:05;16.98;;;12.15;;
75647;SDS011;64238;51.466;7.260;2022-12-18T01:50:25;16.92;;;11.63;;
75647;SDS011;64238;51.466;7.260;2022-12-18T01:52:57;16.35;;;11.45;;
75647;SDS011;64238;51.466;7.260;2022-12-18T01:55:28;17.75;;;11.77;;
75647;SDS011;64238;51.466;7.260;2022-12-18T01:57:57;18.50;;;11.95;;
75647;SDS011;64238;51.466;7.260;2022-12-18T02:00:24;17.88;;;12.27;;
75647;SDS011;64238;51.466;7.260;2022-12-18T02:02:51;17.73;;;11.60;;
75647;SDS011;64238;51.466;7.260;2022-12-18T02:05:18;17.95;;;11.48;;
75647;SDS011;64238;51.466;7.260;2022-12-18T02:08:08;17.13;;;11.50;;
75647;SDS011;64238;51.466;7.260;2022-12-18T02:10:53;15.98;;;11.00;;
75647;SDS011;64238;51.466;7.260;2022-12-18T02:13:41;17.77;;;12.18;;
75647;SDS011;64238;51.466;7.260;2022-12-18T02:16:24;18.02;;;11.70;;
75647;SDS011;64238;51.466;7.260;2022-12-18T02:18:58;17.95;;;12.40;;
75647;SDS011;64238;51.466;7.260;2022-12-18T02:21:35;18.92;;;12.25;;
75647;SDS011;64238;51.466;7.260;2022-12-18T02:24:34;16.48;;;11.60;;
75647;SDS011;64238;51.466;7.260;2022-12-18T02:27:07;19.13;;;12.07;;
75647;SDS011;64238;51.466;7.260;2022-12-18T02:29:37;17.60;;;11.65;;
75647;SDS011;64238;51.466;7.260;2022-12-18T02:32:10;18.33;;;12.63;;
75647;SDS011;64238;51.466;7.260;2022-12-18T02:34:39;17.77;;;12.13;;
75647;SDS011;64238;51.466;7.260;2022-12-18T02:37:07;17.38;;;11.98;;
75647;SDS011;64238;51.466;7.260;2022-12-18T02:39:37;17.02;;;11.90;;
75647;SDS011;64238;51.466;7.260;2022-12-18T02:42:05;18.63;;;12.15;;
75647;SDS011;64238;51.466;7.260;2022-12-18T02:44:33;17.55;;;12.05;;
75647;SDS011;64238;51.466;7.260;2022-12-18T02:47:00;16.60;;;11.20;;
75647;SDS011;64238;51.466;7.260;2022-12-18T02:55:08;16.13;;;11.88;;
75647;SDS011;64238;51.466;7.260;2022-12-18T02:57:44;19.15;;;12.68;;
75647;SDS011;64238;51.466;7.260;2022-12-18T03:00:16;17.23;;;11.63;;
75647;SDS011;64238;51.466;7.260;2022-12-18T03:08:28;17.00;;;11.88;;
75647;SDS011;64238;51.466;7.260;2022-12-18T03:11:01;18.27;;;12.13;;
75647;SDS011;64238;51.466;7.260;2022-12-18T03:13:54;17.05;;;11.07;;
75647;SDS011;64238;51.466;7.260;2022-12-18T03:16:23;16.42;;;10.82;;
75647;SDS011;64238;51.466;7.260;2022-12-18T03:18:58;17.63;;;11.88;;
75647;SDS011;64238;51.466;7.260;2022-12-18T03:21:28;17.42;;;11.90;;
75647;SDS011;64238;51.466;7.260;2022-12-18T03:23:59;16.67;;;11.10;;
75647;SDS011;64238;51.466;7.260;2022-12-18T03:26:28;16.35;;;11.43;;
75647;SDS011;64238;51.466;7.260;2022-12-18T03:28:56;16.45;;;11.20;;
75647;SDS011;64238;51.466;7.260;2022-12-18T03:31:27;15.70;;;10.68;;
75647;SDS011;64238;51.466;7.260;2022-12-18T03:33:57;14.27;;;10.48;;
75647;SDS011;64238;51.466;7.260;2022-12-18T03:36:26;15.90;;;10.73;;
75647;SDS011;64238;51.466;7.260;2022-12-18T03:38:58;15.35;;;10.35;;
75647;SDS011;64238;51.466;7.260;2022-12-18T03:44:26;16.38;;;10.38;;
75647;SDS011;64238;51.466;7.260;2022-12-18T03:55:21;15.02;;;10.32;;
75647;SDS011;64238;51.466;7.260;2022-12-18T03:57:48;16.00;;;10.65;;
75647;SDS011;64238;51.466;7.260;2022-12-18T04:00:15;15.68;;;10.52;;
75647;SDS011;64238;51.466;7.260;2022-12-18T04:02:44;14.63;;;9.98;;
75647;SDS011;64238;51.466;7.260;2022-12-18T04:05:13;14.60;;;10.10;;
75647;SDS011;64238;51.466;7.260;2022-12-18T04:07:40;16.13;;;10.23;;
75647;SDS011;64238;51.466;7.260;2022-12-18T04:10:07;15.18;;;9.90;;
75647;SDS011;64238;51.466;7.260;2022-12-18T04:12:34;16.35;;;10.45;;
75647;SDS011;64238;51.466;7.260;2022-12-18T04:15:02;12.57;;;9.10;;
75647;SDS011;64238;51.466;7.260;2022-12-18T04:17:28;15.00;;;9.38;;
75647;SDS011;64238;51.466;7.260;2022-12-18T04:19:53;13.93;;;8.95;;
75647;SDS011;64238;51.466;7.260;2022-12-18T04:22:19;13.95;;;9.13;;
75647;SDS011;64238;51.466;7.260;2022-12-18T04:24:44;13.80;;;8.85;;
75647;SDS011;64238;51.466;7.260;2022-12-18T04:27:10;14.25;;;9.50;;
75647;SDS011;64238;51.466;7.260;2022-12-18T04:29:35;14.15;;;9.32;;
75647;SDS011;64238;51.466;7.260;2022-12-18T04:32:01;13.27;;;9.20;;
75647;SDS011;64238;51.466;7.260;2022-12-18T04:34:26;14.20;;;9.32;;
75647;SDS011;64238;51.466;7.260;2022-12-18T04:36:52;14.77;;;9.20;;
75647;SDS011;64238;51.466;7.260;2022-12-18T04:39:17;12.93;;;8.90;;
75647;SDS011;64238;51.466;7.260;2022-12-18T04:41:43;14.02;;;9.63;;
75647;SDS011;64238;51.466;7.260;2022-12-18T04:44:08;13.45;;;9.10;;
75647;SDS011;64238;51.466;7.260;2022-12-18T04:46:34;12.27;;;8.73;;
75647;SDS011;64238;51.466;7.260;2022-12-18T04:48:59;14.18;;;9.00;;
75647;SDS011;64238;51.466;7.260;2022-12-18T04:51:25;13.40;;;8.82;;
75647;SDS011;64238;51.466;7.260;2022-12-18T04:53:51;13.85;;;9.10;;
75647;SDS011;64238;51.466;7.260;2022-12-18T04:56:16;13.20;;;8.40;;
75647;SDS011;64238;51.466;7.260;2022-12-18T04:58:43;14.10;;;8.68;;
75647;SDS011;64238;51.466;7.260;2022-12-18T05:01:10;13.05;;;8.65;;
75647;SDS011;64238;51.466;7.260;2022-12-18T05:03:37;13.02;;;8.57;;
75647;SDS011;64238;51.466;7.260;2022-12-18T05:06:03;11.75;;;7.72;;
75647;SDS011;64238;51.466;7.260;2022-12-18T05:08:30;14.48;;;8.50;;
75647;SDS011;64238;51.466;7.260;2022-12-18T05:11:02;13.98;;;8.90;;
75647;SDS011;64238;51.466;7.260;2022-12-18T05:13:30;12.55;;;7.93;;
75647;SDS011;64238;51.466;7.260;2022-12-18T05:15:56;11.77;;;8.20;;
75647;SDS011;64238;51.466;7.260;2022-12-18T05:18:22;12.38;;;8.43;;
75647;SDS011;64238;51.466;7.260;2022-12-18T05:20:49;11.75;;;7.90;;
75647;SDS011;64238;51.466;7.260;2022-12-18T05:23:15;13.23;;;8.48;;
75647;SDS011;64238;51.466;7.260;2022-12-18T05:25:40;11.55;;;7.82;;
75647;SDS011;64238;51.466;7.260;2022-12-18T05:28:06;10.88;;;7.72;;
75647;SDS011;64238;51.466;7.260;2022-12-18T05:30:31;12.40;;;8.05;;
75647;SDS011;64238;51.466;7.260;2022-12-18T05:32:57;12.45;;;7.93;;
75647;SDS011;64238;51.466;7.260;2022-12-18T05:35:22;11.77;;;7.97;;
75647;SDS011;64238;51.466;7.260;2022-12-18T05:37:48;13.35;;;8.43;;
75647;SDS011;64238;51.466;7.260;2022-12-18T05:40:14;12.38;;;8.55;;
75647;SDS011;64238;51.466;7.260;2022-12-18T05:42:39;12.50;;;8.20;;
75647;SDS011;64238;51.466;7.260;2022-12-18T05:45:05;12.60;;;8.27;;
75647;SDS011;64238;51.466;7.260;2022-12-18T05:47:31;12.40;;;8.60;;
75647;SDS011;64238;51.466;7.260;2022-12-18T05:49:56;12.05;;;7.78;;
75647;SDS011;64238;51.466;7.260;2022-12-18T05:52:22;12.40;;;8.57;;
75647;SDS011;64238;51.466;7.260;2022-12-18T05:54:47;12.70;;;7.88;;
75647;SDS011;64238;51.466;7.260;2022-12-18T05:57:13;12.77;;;8.68;;
75647;SDS011;64238;51.466;7.260;2022-12-18T05:59:39;12.93;;;8.38;;
75647;SDS011;64238;51.466;7.260;2022-12-18T06:02:04;13.60;;;8.40;;
75647;SDS011;64238;51.466;7.260;2022-12-18T06:04:30;13.27;;;8.77;;
75647;SDS011;64238;51.466;7.260;2022-12-18T06:06:55;11.73;;;8.20;;
75647;SDS011;64238;51.466;7.260;2022-12-18T06:09:21;15.05;;;8.73;;
75647;SDS011;64238;51.466;7.260;2022-12-18T06:11:46;11.38;;;7.72;;
75647;SDS011;64238;51.466;7.260;2022-12-18T06:14:12;10.68;;;7.63;;
75647;SDS011;64238;51.466;7.260;2022-12-18T06:16:37;12.63;;;8.23;;
75647;SDS011;64238;51.466;7.260;2022-12-18T06:19:04;13.00;;;8.05;;
75647;SDS011;64238;51.466;7.260;2022-12-18T06:21:30;12.02;;;8.02;;
75647;SDS011;64238;51.466;7.260;2022-12-18T06:23:57;12.38;;;8.10;;
75647;SDS011;64238;51.466;7.260;2022-12-18T06:26:23;12.55;;;8.30;;
75647;SDS011;64238;51.466;7.260;2022-12-18T06:28:48;12.70;;;8.57;;
75647;SDS011;64238;51.466;7.260;2022-12-18T06:31:14;12.35;;;8.38;;
75647;SDS011;64238;51.466;7.260;2022-12-18T06:33:40;13.02;;;8.65;;
75647;SDS011;64238;51.466;7.260;2022-12-18T06:36:07;12.55;;;8.63;;
75647;SDS011;64238;51.466;7.260;2022-12-18T06:38:39;13.75;;;9.02;;
75647;SDS011;64238;51.466;7.260;2022-12-18T06:41:07;13.18;;;8.73;;
75647;SDS011;64238;51.466;7.260;2022-12-18T06:43:34;13.57;;;8.57;;
75647;SDS011;64238;51.466;7.260;2022-12-18T06:45:59;12.70;;;8.35;;
75647;SDS011;64238;51.466;7.260;2022-12-18T06:48:26;13.05;;;8.88;;
75647;SDS011;64238;51.466;7.260;2022-12-18T06:50:52;12.82;;;8.98;;
75647;SDS011;64238;51.466;7.260;2022-12-18T06:53:17;13.77;;;8.90;;
75647;SDS011;64238;51.466;7.260;2022-12-18T06:55:43;13.27;;;8.80;;
75647;SDS011;64238;51.466;7.260;2022-12-18T06:58:08;12.77;;;8.65;;
75647;SDS011;64238;51.466;7.260;2022-12-18T07:00:34;13.50;;;9.18;;
75647;SDS011;64238;51.466;7.260;2022-12-18T07:02:59;14.30;;;10.05;;
75647;SDS011;64238;51.466;7.260;2022-12-18T07:05:25;13.55;;;9.70;;
75647;SDS011;64238;51.466;7.260;2022-12-18T07:07:50;13.32;;;9.05;;
75647;SDS011;64238;51.466;7.260;2022-12-18T07:10:16;14.52;;;9.25;;
75647;SDS011;64238;51.466;7.260;2022-12-18T07:12:41;14.25;;;9.93;;
75647;SDS011;64238;51.466;7.260;2022-12-18T07:15:07;12.98;;;9.13;;
75647;SDS011;64238;51.466;7.260;2022-12-18T07:17:33;14.80;;;9.80;;
75647;SDS011;64238;51.466;7.260;2022-12-18T07:19:58;14.02;;;9.30;;
75647;SDS011;64238;51.466;7.260;2022-12-18T07:22:27;14.73;;;9.73;;
75647;SDS011;64238;51.466;7.260;2022-12-18T07:24:52;15.52;;;10.23;;
75647;SDS011;64238;51.466;7.260;2022-12-18T07:27:18;15.10;;;9.52;;
75647;SDS011;64238;51.466;7.260;2022-12-18T07:29:44;14.05;;;9.52;;
75647;SDS011;64238;51.466;7.260;2022-12-18T07:32:09;14.20;;;10.15;;
75647;SDS011;64238;51.466;7.260;2022-12-18T07:34:35;15.07;;;10.25;;
75647;SDS011;64238;51.466;7.260;2022-12-18T07:37:00;14.60;;;10.00;;
75647;SDS011;64238;51.466;7.260;2022-12-18T07:39:26;15.75;;;10.02;;
75647;SDS011;64238;51.466;7.260;2022-12-18T07:41:52;14.80;;;10.57;;
75647;SDS011;64238;51.466;7.260;2022-12-18T07:44:36;14.52;;;9.90;;
75647;SDS011;64238;51.466;7.260;2022-12-18T07:47:02;15.07;;;9.88;;
75647;SDS011;64238;51.466;7.260;2022-12-18T07:49:28;15.23;;;10.45;;
75647;SDS011;64238;51.466;7.260;2022-12-18T07:51:54;14.20;;;10.45;;
75647;SDS011;64238;51.466;7.260;2022-12-18T07:54:21;15.27;;;9.60;;
75647;SDS011;64238;51.466;7.260;2022-12-18T07:56:47;16.15;;;10.48;;
75647;SDS011;64238;51.466;7.260;2022-12-18T07:59:13;17.08;;;10.98;;
75647;SDS011;64238;51.466;7.260;2022-12-18T08:01:38;14.30;;;10.20;;
75647;SDS011;64238;51.466;7.260;2022-12-18T08:04:04;14.95;;;10.20;;
75647;SDS011;64238;51.466;7.260;2022-12-18T08:06:30;14.98;;;10.48;;
75647;SDS011;64238;51.466;7.260;2022-12-18T08:08:55;16.27;;;10.20;;
75647;SDS011;64238;51.466;7.260;2022-12-18T08:11:21;16.00;;;11.20;;
75647;SDS011;64238;51.466;7.260;2022-12-18T08:13:48;16.92;;;10.60;;
75647;SDS011;64238;51.466;7.260;2022-12-18T08:16:14;16.10;;;10.27;;
75647;SDS011;64238;51.466;7.260;2022-12-18T08:18:39;15.25;;;10.20;;
75647;SDS011;64238;51.466;7.260;2022-12-18T08:21:18;17.73;;;10.88;;
75647;SDS011;64238;51.466;7.260;2022-12-18T08:23:47;14.75;;;10.25;;
75647;SDS011;64238;51.466;7.260;2022-12-18T08:26:13;15.27;;;10.82;;
75647;SDS011;64238;51.466;7.260;2022-12-18T08:28:39;13.38;;;9.68;;
75647;SDS011;64238;51.466;7.260;2022-12-18T08:31:05;16.58;;;11.25;;
75647;SDS011;64238;51.466;7.260;2022-12-18T08:33:31;16.17;;;10.88;;
75647;SDS011;64238;51.466;7.260;2022-12-18T08:35:57;14.25;;;10.25;;
75647;SDS011;64238;51.466;7.260;2022-12-18T08:38:24;16.70;;;10.85;;
75647;SDS011;64238;51.466;7.260;2022-12-18T08:40:49;15.65;;;10.88;;
75647;SDS011;64238;51.466;7.260;2022-12-18T08:43:19;17.25;;;11.32;;
75647;SDS011;64238;51.466;7.260;2022-12-18T08:46:03;16.65;;;11.02;;
75647;SDS011;64238;51.466;7.260;2022-12-18T08:48:29;17.33;;;10.95;;
75647;SDS011;64238;51.466;7.260;2022-12-18T08:50:57;15.73;;;11.85;;
75647;SDS011;64238;51.466;7.260;2022-12-18T08:53:24;17.67;;;11.25;;
75647;SDS011;64238;51.466;7.260;2022-12-18T08:55:50;15.40;;;11.00;;
75647;SDS011;64238;51.466;7.260;2022-12-18T08:58:16;16.25;;;11.45;;
75647;SDS011;64238;51.466;7.260;2022-12-18T09:00:42;14.95;;;10.82;;
75647;SDS011;64238;51.466;7.260;2022-12-18T09:03:14;14.77;;;10.35;;
75647;SDS011;64238;51.466;7.260;2022-12-18T09:05:40;15.60;;;10.82;;
75647;SDS011;64238;51.466;7.260;2022-12-18T09:08:06;16.17;;;11.57;;
75647;SDS011;64238;51.466;7.260;2022-12-18T09:10:32;17.00;;;11.10;;
75647;SDS011;64238;51.466;7.260;2022-12-18T09:12:57;17.13;;;11.02;;
75647;SDS011;64238;51.466;7.260;2022-12-18T09:15:23;16.27;;;11.15;;
75647;SDS011;64238;51.466;7.260;2022-12-18T09:17:48;15.40;;;10.48;;
75647;SDS011;64238;51.466;7.260;2022-12-18T09:20:15;15.27;;;10.77;;
75647;SDS011;64238;51.466;7.260;2022-12-18T09:22:41;16.60;;;10.82;;
75647;SDS011;64238;51.466;7.260;2022-12-18T09:25:07;16.75;;;11.02;;
75647;SDS011;64238;51.466;7.260;2022-12-18T09:27:33;16.00;;;10.77;;
75647;SDS011;64238;51.466;7.260;2022-12-18T09:29:59;17.42;;;11.70;;
75647;SDS011;64238;51.466;7.260;2022-12-18T09:32:25;17.00;;;10.55;;
75647;SDS011;64238;51.466;7.260;2022-12-18T09:34:50;16.60;;;10.95;;
75647;SDS011;64238;51.466;7.260;2022-12-18T09:37:16;16.13;;;11.20;;
75647;SDS011;64238;51.466;7.260;2022-12-18T09:39:41;15.52;;;10.80;;
75647;SDS011;64238;51.466;7.260;2022-12-18T09:42:09;15.88;;;10.57;;
75647;SDS011;64238;51.466;7.260;2022-12-18T09:44:52;16.10;;;10.70;;
75647;SDS011;64238;51.466;7.260;2022-12-18T09:47:27;15.82;;;10.65;;
75647;SDS011;64238;51.466;7.260;2022-12-18T09:50:01;15.55;;;10.77;;
75647;SDS011;64238;51.466;7.260;2022-12-18T09:52:39;14.75;;;10.18;;
75647;SDS011;64238;51.466;7.260;2022-12-18T09:55:29;15.35;;;10.57;;
75647;SDS011;64238;51.466;7.260;2022-12-18T09:58:54;14.45;;;9.77;;
75647;SDS011;64238;51.466;7.260;2022-12-18T10:00:58;14.57;;;9.73;;
75647;SDS011;64238;51.466;7.260;2022-12-18T10:03:23;15.40;;;10.85;;
75647;SDS011;64238;51.466;7.260;2022-12-18T10:05:55;14.85;;;9.95;;
75647;SDS011;64238;51.466;7.260;2022-12-18T10:17:17;14.75;;;9.82;;
75647;SDS011;64238;51.466;7.260;2022-12-18T10:20:11;14.80;;;9.95;;
75647;SDS011;64238;51.466;7.260;2022-12-18T10:25:23;12.93;;;8.55;;
75647;SDS011;64238;51.466;7.260;2022-12-18T10:27:54;14.43;;;9.80;;
75647;SDS011;64238;51.466;7.260;2022-12-18T10:30:23;14.30;;;9.10;;
75647;SDS011;64238;51.466;7.260;2022-12-18T10:32:50;14.35;;;9.57;;
75647;SDS011;64238;51.466;7.260;2022-12-18T10:35:18;14.85;;;9.50;;
75647;SDS011;64238;51.466;7.260;2022-12-18T10:40:30;14.30;;;9.38;;
75647;SDS011;64238;51.466;7.260;2022-12-18T10:43:05;13.85;;;9.95;;
75647;SDS011;64238;51.466;7.260;2022-12-18T10:45:36;14.68;;;9.60;;
75647;SDS011;64238;51.466;7.260;2022-12-18T10:48:01;12.93;;;9.00;;
75647;SDS011;64238;51.466;7.260;2022-12-18T10:50:30;12.98;;;9.20;;
75647;SDS011;64238;51.466;7.260;2022-12-18T10:53:01;12.82;;;8.75;;
75647;SDS011;64238;51.466;7.260;2022-12-18T10:55:32;13.02;;;8.55;;
75647;SDS011;64238;51.466;7.260;2022-12-18T10:58:13;13.50;;;9.25;;
75647;SDS011;64238;51.466;7.260;2022-12-18T11:03:30;13.50;;;8.82;;
75647;SDS011;64238;51.466;7.260;2022-12-18T11:06:11;12.63;;;8.32;;
75647;SDS011;64238;51.466;7.260;2022-12-18T11:08:41;11.75;;;8.80;;
75647;SDS011;64238;51.466;7.260;2022-12-18T11:11:15;12.90;;;8.60;;
75647;SDS011;64238;51.466;7.260;2022-12-18T11:14:05;12.70;;;8.05;;
75647;SDS011;64238;51.466;7.260;2022-12-18T11:16:44;12.85;;;8.00;;
75647;SDS011;64238;51.466;7.260;2022-12-18T11:19:21;11.63;;;8.43;;
75647;SDS011;64238;51.466;7.260;2022-12-18T11:22:18;11.98;;;7.78;;
75647;SDS011;64238;51.466;7.260;2022-12-18T11:25:36;12.27;;;8.18;;
75647;SDS011;64238;51.466;7.260;2022-12-18T11:27:37;11.32;;;7.90;;
75647;SDS011;64238;51.466;7.260;2022-12-18T11:30:08;11.85;;;8.10;;
75647;SDS011;64238;51.466;7.260;2022-12-18T11:33:09;10.93;;;7.53;;
75647;SDS011;64238;51.466;7.260;2022-12-18T11:35:39;11.23;;;7.80;;
75647;SDS011;64238;51.466;7.260;2022-12-18T11:38:26;10.93;;;7.45;;
75647;SDS011;64238;51.466;7.260;2022-12-18T11:44:14;12.32;;;7.50;;
75647;SDS011;64238;51.466;7.260;2022-12-18T11:46:59;11.82;;;7.22;;
75647;SDS011;64238;51.466;7.260;2022-12-18T11:49:34;10.68;;;7.30;;
75647;SDS011;64238;51.466;7.260;2022-12-18T11:52:02;12.50;;;7.57;;
75647;SDS011;64238;51.466;7.260;2022-12-18T11:54:35;11.18;;;7.47;;
75647;SDS011;64238;51.466;7.260;2022-12-18T11:57:07;10.73;;;6.93;;
75647;SDS011;64238;51.466;7.260;2022-12-18T12:02:42;11.02;;;7.15;;
75647;SDS011;64238;51.466;7.260;2022-12-18T12:11:36;12.07;;;7.22;;
75647;SDS011;64238;51.466;7.260;2022-12-18T12:16:54;10.37;;;6.80;;
75647;SDS011;64238;51.466;7.260;2022-12-18T12:19:30;9.93;;;6.57;;
75647;SDS011;64238;51.466;7.260;2022-12-18T12:27:28;10.07;;;6.63;;
75647;SDS011;64238;51.466;7.260;2022-12-18T12:30:06;9.73;;;6.65;;
75647;SDS011;64238;51.466;7.260;2022-12-18T12:38:06;10.48;;;6.47;;
75647;SDS011;64238;51.466;7.260;2022-12-18T12:40:38;11.07;;;6.45;;
75647;SDS011;64238;51.466;7.260;2022-12-18T12:43:28;10.07;;;6.75;;
75647;SDS011;64238;51.466;7.260;2022-12-18T12:46:04;11.15;;;6.90;;
75647;SDS011;64238;51.466;7.260;2022-12-18T12:48:45;11.27;;;6.95;;
75647;SDS011;64238;51.466;7.260;2022-12-18T12:51:17;9.40;;;6.35;;
75647;SDS011;64238;51.466;7.260;2022-12-18T12:53:50;10.40;;;6.53;;
75647;SDS011;64238;51.466;7.260;2022-12-18T12:56:17;9.27;;;6.20;;
75647;SDS011;64238;51.466;7.260;2022-12-18T13:01:25;9.77;;;5.65;;
75647;SDS011;64238;51.466;7.260;2022-12-18T13:06:58;10.13;;;5.97;;
75647;SDS011;64238;51.466;7.260;2022-12-18T13:09:34;9.80;;;6.20;;
75647;SDS011;64238;51.466;7.260;2022-12-18T13:15:36;10.90;;;6.00;;
75647;SDS011;64238;51.466;7.260;2022-12-18T13:20:44;9.25;;;5.68;;
75647;SDS011;64238;51.466;7.260;2022-12-18T13:25:47;9.05;;;5.15;;
75647;SDS011;64238;51.466;7.260;2022-12-18T13:31:15;9.65;;;5.90;;
75647;SDS011;64238;51.466;7.260;2022-12-18T13:36:41;9.88;;;5.63;;
75647;SDS011;64238;51.466;7.260;2022-12-18T13:41:50;9.85;;;5.65;;
75647;SDS011;64238;51.466;7.260;2022-12-18T13:44:56;8.93;;;5.22;;
75647;SDS011;64238;51.466;7.260;2022-12-18T13:49:56;9.52;;;5.38;;
75647;SDS011;64238;51.466;7.260;2022-12-18T13:52:22;8.68;;;5.30;;
75647;SDS011;64238;51.466;7.260;2022-12-18T13:54:51;9.10;;;5.25;;
75647;SDS011;64238;51.466;7.260;2022-12-18T13:57:33;8.65;;;5.53;;
75647;SDS011;64238;51.466;7.260;2022-12-18T14:02:49;8.43;;;4.90;;
75647;SDS011;64238;51.466;7.260;2022-12-18T14:05:25;9.18;;;5.57;;
75647;SDS011;64238;51.466;7.260;2022-12-18T14:07:53;8.27;;;5.25;;
75647;SDS011;64238;51.466;7.260;2022-12-18T14:10:19;8.35;;;5.30;;
75647;SDS011;64238;51.466;7.260;2022-12-18T14:12:49;8.70;;;5.18;;
75647;SDS011;64238;51.466;7.260;2022-12-18T14:15:27;8.85;;;5.38;;
75647;SDS011;64238;51.466;7.260;2022-12-18T14:20:53;8.32;;;4.65;;
75647;SDS011;64238;51.466;7.260;2022-12-18T14:25:56;8.38;;;5.43;;
75647;SDS011;64238;51.466;7.260;2022-12-18T14:28:21;8.95;;;4.82;;
75647;SDS011;64238;51.466;7.260;2022-12-18T14:30:47;7.80;;;5.13;;
75647;SDS011;64238;51.466;7.260;2022-12-18T14:33:14;9.68;;;5.07;;
75647;SDS011;64238;51.466;7.260;2022-12-18T14:38:27;7.57;;;4.80;;
75647;SDS011;64238;51.466;7.260;2022-12-18T14:41:09;9.10;;;5.32;;
75647;SDS011;64238;51.466;7.260;2022-12-18T14:43:40;8.70;;;4.80;;
75647;SDS011;64238;51.466;7.260;2022-12-18T14:48:58;8.68;;;5.05;;
75647;SDS011;64238;51.466;7.260;2022-12-18T14:51:27;8.80;;;4.65;;
75647;SDS011;64238;51.466;7.260;2022-12-18T14:53:55;8.02;;;5.18;;
75647;SDS011;64238;51.466;7.260;2022-12-18T14:56:30;8.65;;;4.93;;
75647;SDS011;64238;51.466;7.260;2022-12-18T14:58:59;7.80;;;4.63;;
75647;SDS011;64238;51.466;7.260;2022-12-18T15:01:28;8.80;;;5.10;;
75647;SDS011;64238;51.466;7.260;2022-12-18T15:03:54;8.68;;;4.95;;
75647;SDS011;64238;51.466;7.260;2022-12-18T15:06:26;8.77;;;4.90;;
75647;SDS011;64238;51.466;7.260;2022-12-18T15:08:57;7.85;;;4.70;;
75647;SDS011;64238;51.466;7.260;2022-12-18T15:11:30;8.65;;;4.93;;
75647;SDS011;64238;51.466;7.260;2022-12-18T15:14:24;8.43;;;4.50;;
75647;SDS011;64238;51.466;7.260;2022-12-18T15:17:00;7.45;;;4.40;;
75647;SDS011;64238;51.466;7.260;2022-12-18T15:19:34;8.63;;;4.72;;
75647;SDS011;64238;51.466;7.260;2022-12-18T15:22:03;8.52;;;4.57;;
75647;SDS011;64238;51.466;7.260;2022-12-18T15:24:30;8.85;;;4.88;;
75647;SDS011;64238;51.466;7.260;2022-12-18T15:26:57;7.72;;;4.63;;
75647;SDS011;64238;51.466;7.260;2022-12-18T15:29:24;7.38;;;4.40;;
75647;SDS011;64238;51.466;7.260;2022-12-18T15:31:58;8.95;;;5.25;;
75647;SDS011;64238;51.466;7.260;2022-12-18T15:34:25;7.63;;;4.55;;
75647;SDS011;64238;51.466;7.260;2022-12-18T15:36:51;8.07;;;4.60;;
75647;SDS011;64238;51.466;7.260;2022-12-18T15:39:17;8.30;;;4.60;;
75647;SDS011;64238;51.466;7.260;2022-12-18T15:41:42;8.32;;;4.57;;
75647;SDS011;64238;51.466;7.260;2022-12-18T15:44:28;9.25;;;5.10;;
75647;SDS011;64238;51.466;7.260;2022-12-18T15:46:54;8.35;;;4.93;;
75647;SDS011;64238;51.466;7.260;2022-12-18T15:49:19;8.65;;;4.82;;
75647;SDS011;64238;51.466;7.260;2022-12-18T15:51:45;8.48;;;4.88;;
75647;SDS011;64238;51.466;7.260;2022-12-18T15:54:19;8.00;;;4.55;;
75647;SDS011;64238;51.466;7.260;2022-12-18T15:57:04;9.18;;;4.75;;
75647;SDS011;64238;51.466;7.260;2022-12-18T15:59:48;8.27;;;4.80;;
75647;SDS011;64238;51.466;7.260;2022-12-18T16:02:16;9.30;;;5.05;;
75647;SDS011;64238;51.466;7.260;2022-12-18T16:04:43;8.40;;;4.78;;
75647;SDS011;64238;51.466;7.260;2022-12-18T16:07:10;7.93;;;4.85;;
75647;SDS011;64238;51.466;7.260;2022-12-18T16:09:36;8.32;;;4.53;;
75647;SDS011;64238;51.466;7.260;2022-12-18T16:12:02;8.90;;;5.18;;
75647;SDS011;64238;51.466;7.260;2022-12-18T16:14:29;7.90;;;4.50;;
75647;SDS011;64238;51.466;7.260;2022-12-18T16:16:56;8.77;;;5.10;;
75647;SDS011;64238;51.466;7.260;2022-12-18T16:19:27;9.38;;;4.95;;
75647;SDS011;64238;51.466;7.260;2022-12-18T16:21:54;7.68;;;4.65;;
75647;SDS011;64238;51.466;7.260;2022-12-18T16:24:22;9.02;;;5.20;;
75647;SDS011;64238;51.466;7.260;2022-12-18T16:26:52;9.32;;;5.32;;
75647;SDS011;64238;51.466;7.260;2022-12-18T16:29:19;9.02;;;5.30;;
75647;SDS011;64238;51.466;7.260;2022-12-18T16:31:49;7.95;;;4.50;;
75647;SDS011;64238;51.466;7.260;2022-12-18T16:34:19;9.02;;;4.75;;
75647;SDS011;64238;51.466;7.260;2022-12-18T16:36:47;8.88;;;4.95;;
75647;SDS011;64238;51.466;7.260;2022-12-18T16:39:13;8.15;;;5.10;;